createdAt,value
2023-10-08T00:00:59.748Z,935.43
2023-10-08T00:01:59.736Z,935.47
2023-10-08T00:02:59.802Z,935.46
2023-10-08T00:04:00.064Z,935.44
2023-10-08T00:04:59.726Z,935.46
2023-10-08T00:05:59.693Z,935.47
2023-10-08T00:07:01.004Z,935.50
2023-10-08T00:07:59.682Z,935.53
2023-10-08T00:08:59.705Z,935.51
2023-10-08T00:09:59.682Z,935.48
2023-10-08T00:10:59.763Z,935.47
2023-10-08T00:11:59.646Z,935.46
2023-10-08T00:12:59.734Z,935.49
2023-10-08T00:13:59.611Z,935.47
2023-10-08T00:14:59.609Z,935.41
2023-10-08T00:15:59.602Z,935.36
2023-10-08T00:16:59.637Z,935.38
2023-10-08T00:17:59.687Z,935.37
2023-10-08T00:18:59.589Z,935.30
2023-10-08T00:19:59.696Z,935.31
2023-10-08T00:20:59.629Z,935.30
2023-10-08T00:21:59.621Z,935.29
2023-10-08T00:22:59.541Z,935.30
2023-10-08T00:24:00.698Z,935.35
2023-10-08T00:24:59.544Z,935.35
2023-10-08T00:25:59.577Z,935.35
2023-10-08T00:26:59.508Z,935.39
2023-10-08T00:27:59.543Z,935.36
2023-10-08T00:28:59.492Z,935.40
2023-10-08T00:29:59.598Z,935.41
2023-10-08T00:30:59.505Z,935.40
2023-10-08T00:31:59.452Z,935.40
2023-10-08T00:32:59.548Z,935.42
2023-10-08T00:33:59.585Z,935.40
2023-10-08T00:34:59.441Z,935.39
2023-10-08T00:35:59.566Z,935.43
2023-10-08T00:36:59.513Z,935.42
2023-10-08T00:37:59.564Z,935.42
2023-10-08T00:38:59.399Z,935.43
2023-10-08T00:39:59.386Z,935.46
2023-10-08T00:40:59.386Z,935.47
2023-10-08T00:42:00.067Z,935.46
2023-10-08T00:42:59.368Z,935.47
2023-10-08T00:43:59.362Z,935.51
2023-10-08T00:44:59.354Z,935.58
2023-10-08T00:45:59.627Z,935.63
2023-10-08T00:46:59.417Z,935.67
2023-10-08T00:47:59.529Z,935.67
2023-10-08T00:48:59.318Z,935.68
2023-10-08T00:49:59.402Z,935.67
2023-10-08T00:50:59.308Z,935.67
2023-10-08T00:51:59.437Z,935.63
2023-10-08T00:52:59.290Z,935.60
2023-10-08T00:53:59.359Z,935.58
2023-10-08T00:54:59.271Z,935.56
2023-10-08T00:55:59.245Z,935.52
2023-10-08T00:56:59.272Z,935.49
2023-10-08T00:57:59.362Z,935.48
2023-10-08T00:58:59.234Z,935.44
2023-10-08T00:59:59.217Z,935.43
2023-10-08T01:00:59.263Z,935.44
2023-10-08T01:01:59.269Z,935.46
2023-10-08T01:02:59.265Z,935.48
2023-10-08T01:03:59.368Z,935.47
2023-10-08T01:04:59.183Z,935.49
2023-10-08T01:05:59.299Z,935.51
2023-10-08T01:06:59.156Z,935.51
2023-10-08T01:07:59.211Z,935.56
2023-10-08T01:08:59.142Z,935.54
2023-10-08T01:09:59.124Z,935.53
2023-10-08T01:10:59.124Z,935.55
2023-10-08T01:11:59.136Z,935.57
2023-10-08T01:12:59.115Z,935.57
2023-10-08T01:13:59.087Z,935.60
2023-10-08T01:14:59.089Z,935.59
2023-10-08T01:15:59.178Z,935.61
2023-10-08T01:16:59.095Z,935.59
2023-10-08T01:17:59.240Z,935.65
2023-10-08T01:18:59.054Z,935.68
2023-10-08T01:19:59.084Z,935.70
2023-10-08T01:20:59.040Z,935.72
2023-10-08T01:21:59.104Z,935.68
2023-10-08T01:22:59.024Z,935.69
2023-10-08T01:23:59.032Z,935.67
2023-10-08T01:24:59.009Z,935.65
2023-10-08T01:25:59.086Z,935.67
2023-10-08T01:26:58.981Z,935.58
2023-10-08T01:27:59.017Z,935.57
2023-10-08T01:28:58.972Z,935.55
2023-10-08T01:29:58.953Z,935.55
2023-10-08T01:30:59.006Z,935.56
2023-10-08T01:31:58.958Z,935.58
2023-10-08T01:32:58.997Z,935.62
2023-10-08T01:33:58.917Z,935.61
2023-10-08T01:34:58.919Z,935.59
2023-10-08T01:35:58.929Z,935.66
2023-10-08T01:36:59.002Z,935.62
2023-10-08T01:37:58.930Z,935.59
2023-10-08T01:38:58.879Z,935.57
2023-10-08T01:39:58.865Z,935.51
2023-10-08T01:40:58.858Z,935.49
2023-10-08T01:41:58.981Z,935.44
2023-10-08T01:42:58.844Z,935.41
2023-10-08T01:43:58.918Z,935.33
2023-10-08T01:44:58.819Z,935.28
2023-10-08T01:45:58.878Z,935.31
2023-10-08T01:46:58.794Z,935.34
2023-10-08T01:47:58.937Z,935.28
2023-10-08T01:48:58.783Z,935.31
2023-10-08T01:49:58.817Z,935.30
2023-10-08T01:50:58.764Z,935.34
2023-10-08T01:51:58.743Z,935.35
2023-10-08T01:52:58.762Z,935.42
2023-10-08T01:53:58.806Z,935.44
2023-10-08T01:54:58.721Z,935.47
2023-10-08T01:55:58.846Z,935.52
2023-10-08T01:56:58.711Z,935.49
2023-10-08T01:57:58.695Z,935.48
2023-10-08T01:58:58.692Z,935.54
2023-10-08T01:59:58.794Z,935.51
2023-10-08T02:00:58.669Z,935.50
2023-10-08T02:01:58.791Z,935.55
2023-10-08T02:02:58.790Z,935.57
2023-10-08T02:03:58.732Z,935.55
2023-10-08T02:04:58.677Z,935.59
2023-10-08T02:05:58.707Z,935.56
2023-10-08T02:06:58.622Z,935.53
2023-10-08T02:07:58.606Z,935.52
2023-10-08T02:08:58.598Z,935.46
2023-10-08T02:09:58.584Z,935.44
2023-10-08T02:10:58.590Z,935.45
2023-10-08T02:11:58.584Z,935.43
2023-10-08T02:12:58.573Z,935.43
2023-10-08T02:13:58.555Z,935.40
2023-10-08T02:14:58.552Z,935.41
2023-10-08T02:15:58.564Z,935.41
2023-10-08T02:16:58.535Z,935.35
2023-10-08T02:17:58.643Z,935.35
2023-10-08T02:18:58.553Z,935.36
2023-10-08T02:19:58.497Z,935.38
2023-10-08T02:20:58.494Z,935.36
2023-10-08T02:21:58.479Z,935.40
2023-10-08T02:22:58.482Z,935.42
2023-10-08T02:23:58.464Z,935.44
2023-10-08T02:24:58.462Z,935.41
2023-10-08T02:25:58.445Z,935.42
2023-10-08T02:26:58.479Z,935.42
2023-10-08T02:27:58.428Z,935.41
2023-10-08T02:28:58.425Z,935.38
2023-10-08T02:29:58.415Z,935.43
2023-10-08T02:30:58.414Z,935.41
2023-10-08T02:31:58.414Z,935.44
2023-10-08T02:32:58.516Z,935.48
2023-10-08T02:33:58.376Z,935.52
2023-10-08T02:34:58.608Z,935.54
2023-10-08T02:35:58.357Z,935.54
2023-10-08T02:36:58.359Z,935.55
2023-10-08T02:37:58.338Z,935.53
2023-10-08T02:38:58.342Z,935.57
2023-10-08T02:39:58.324Z,935.54
2023-10-08T02:40:58.324Z,935.56
2023-10-08T02:41:58.302Z,935.55
2023-10-08T02:42:58.306Z,935.54
2023-10-08T02:43:58.286Z,935.56
2023-10-08T02:44:58.283Z,935.57
2023-10-08T02:45:58.308Z,935.61
2023-10-08T02:46:58.286Z,935.61
2023-10-08T02:47:58.418Z,935.62
2023-10-08T02:48:58.259Z,935.65
2023-10-08T02:49:58.243Z,935.65
2023-10-08T02:50:58.233Z,935.62
2023-10-08T02:51:58.214Z,935.61
2023-10-08T02:52:58.216Z,935.65
2023-10-08T02:53:58.201Z,935.63
2023-10-08T02:54:58.193Z,935.64
2023-10-08T02:55:58.191Z,935.67
2023-10-08T02:56:58.184Z,935.62
2023-10-08T02:57:58.167Z,935.60
2023-10-08T02:58:58.159Z,935.59
2023-10-08T02:59:58.144Z,935.55
2023-10-08T03:00:58.152Z,935.49
2023-10-08T03:01:58.127Z,935.47
2023-10-08T03:02:58.217Z,935.45
2023-10-08T03:03:58.207Z,935.42
2023-10-08T03:04:58.104Z,935.41
2023-10-08T03:05:58.234Z,935.34
2023-10-08T03:06:58.094Z,935.34
2023-10-08T03:07:58.071Z,935.27
2023-10-08T03:08:58.169Z,935.26
2023-10-08T03:09:58.053Z,935.26
2023-10-08T03:10:58.174Z,935.25
2023-10-08T03:11:58.035Z,935.26
2023-10-08T03:12:58.054Z,935.30
2023-10-08T03:13:58.020Z,935.28
2023-10-08T03:14:58.011Z,935.30
2023-10-08T03:15:58.011Z,935.37
2023-10-08T03:16:58.002Z,935.43
2023-10-08T03:17:58.033Z,935.40
2023-10-08T03:18:58.430Z,935.46
2023-10-08T03:19:57.970Z,935.48
2023-10-08T03:20:57.963Z,935.50
2023-10-08T03:21:57.959Z,935.51
2023-10-08T03:22:57.962Z,935.54
2023-10-08T03:23:58.091Z,935.62
2023-10-08T03:24:57.937Z,935.65
2023-10-08T03:25:57.913Z,935.66
2023-10-08T03:26:57.919Z,935.62
2023-10-08T03:27:57.894Z,935.62
2023-10-08T03:28:57.899Z,935.60
2023-10-08T03:29:57.914Z,935.57
2023-10-08T03:30:57.878Z,935.53
2023-10-08T03:31:57.860Z,935.47
2023-10-08T03:32:58.069Z,935.37
2023-10-08T03:33:57.845Z,935.37
2023-10-08T03:34:57.849Z,935.34
2023-10-08T03:35:57.823Z,935.26
2023-10-08T03:36:57.827Z,935.26
2023-10-08T03:37:57.844Z,935.27
2023-10-08T03:38:57.853Z,935.26
2023-10-08T03:39:57.790Z,935.21
2023-10-08T03:40:57.794Z,935.16
2023-10-08T03:41:57.771Z,935.11
2023-10-08T03:42:57.799Z,935.07
2023-10-08T03:43:57.754Z,935.04
2023-10-08T03:44:57.806Z,934.96
2023-10-08T03:45:57.768Z,934.93
2023-10-08T03:46:57.735Z,934.86
2023-10-08T03:47:57.786Z,934.80
2023-10-08T03:48:57.711Z,934.71
2023-10-08T03:49:57.711Z,934.73
2023-10-08T03:50:57.702Z,934.72
2023-10-08T03:51:57.679Z,934.68
2023-10-08T03:52:57.684Z,934.71
2023-10-08T03:53:57.663Z,934.70
2023-10-08T03:54:57.662Z,934.70
2023-10-08T03:55:57.644Z,934.71
2023-10-08T03:56:57.762Z,934.68
2023-10-08T03:57:57.629Z,934.68
2023-10-08T03:58:57.628Z,934.66
2023-10-08T03:59:57.680Z,934.68
2023-10-08T04:00:59.449Z,934.62
2023-10-08T04:01:57.591Z,934.61
2023-10-08T04:02:57.619Z,934.59
2023-10-08T04:03:57.680Z,934.57
2023-10-08T04:04:57.593Z,934.59
2023-10-08T04:05:57.583Z,934.55
2023-10-08T04:06:57.555Z,934.58
2023-10-08T04:07:57.537Z,934.57
2023-10-08T04:08:57.540Z,934.54
2023-10-08T04:09:57.554Z,934.58
2023-10-08T04:10:57.517Z,934.55
2023-10-08T04:11:59.405Z,934.51
2023-10-08T04:12:57.503Z,934.51
2023-10-08T04:13:57.480Z,934.44
2023-10-08T04:14:57.535Z,934.39
2023-10-08T04:15:57.489Z,934.34
2023-10-08T04:16:57.467Z,934.33
2023-10-08T04:17:57.502Z,934.29
2023-10-08T04:18:57.448Z,934.29
2023-10-08T04:19:57.425Z,934.31
2023-10-08T04:20:57.501Z,934.30
2023-10-08T04:21:57.422Z,934.25
2023-10-08T04:22:57.410Z,934.30
2023-10-08T04:23:57.416Z,934.27
2023-10-08T04:24:57.392Z,934.30
2023-10-08T04:25:57.374Z,934.25
2023-10-08T04:26:57.377Z,934.20
2023-10-08T04:27:57.354Z,934.20
2023-10-08T04:28:57.360Z,934.19
2023-10-08T04:29:57.335Z,934.20
2023-10-08T04:30:57.354Z,934.20
2023-10-08T04:31:57.319Z,934.19
2023-10-08T04:32:57.366Z,934.17
2023-10-08T04:33:57.312Z,934.17
2023-10-08T04:34:57.293Z,934.18
2023-10-08T04:35:57.573Z,934.15
2023-10-08T04:36:57.275Z,934.15
2023-10-08T04:37:57.276Z,934.17
2023-10-08T04:38:57.298Z,934.14
2023-10-08T04:39:57.261Z,934.11
2023-10-08T04:40:57.242Z,934.14
2023-10-08T04:41:57.287Z,934.11
2023-10-08T04:42:57.222Z,934.14
2023-10-08T04:43:57.222Z,934.17
2023-10-08T04:44:57.263Z,934.18
2023-10-08T04:45:57.342Z,934.20
2023-10-08T04:46:57.217Z,934.12
2023-10-08T04:47:57.263Z,934.14
2023-10-08T04:48:57.173Z,934.12
2023-10-08T04:49:57.165Z,934.13
2023-10-08T04:50:57.198Z,934.09
2023-10-08T04:51:57.156Z,934.10
2023-10-08T04:52:57.135Z,934.00
2023-10-08T04:53:57.171Z,934.00
2023-10-08T04:54:57.121Z,933.98
2023-10-08T04:55:57.120Z,933.98
2023-10-08T04:56:57.243Z,933.98
2023-10-08T04:57:57.102Z,933.96
2023-10-08T04:58:57.081Z,933.95
2023-10-08T04:59:57.156Z,933.95
2023-10-08T05:00:57.087Z,933.92
2023-10-08T05:01:57.068Z,933.89
2023-10-08T05:02:57.165Z,933.86
2023-10-08T05:03:57.175Z,933.85
2023-10-08T05:04:57.044Z,933.83
2023-10-08T05:05:57.046Z,933.82
2023-10-08T05:06:57.006Z,933.79
2023-10-08T05:07:57.001Z,933.79
2023-10-08T05:08:57.029Z,933.76
2023-10-08T05:09:56.991Z,933.69
2023-10-08T05:10:56.971Z,933.62
2023-10-08T05:11:57.034Z,933.56
2023-10-08T05:12:56.953Z,933.54
2023-10-08T05:13:56.956Z,933.49
2023-10-08T05:14:57.095Z,933.44
2023-10-08T05:15:56.958Z,933.39
2023-10-08T05:16:56.916Z,933.35
2023-10-08T05:17:57.086Z,933.29
2023-10-08T05:18:56.896Z,933.27
2023-10-08T05:19:56.891Z,933.20
2023-10-08T05:20:57.002Z,933.14
2023-10-08T05:21:56.880Z,933.05
2023-10-08T05:22:57.125Z,932.99
2023-10-08T05:23:56.884Z,932.99
2023-10-08T05:24:56.845Z,932.97
2023-10-08T05:25:56.849Z,933.01
2023-10-08T05:26:56.877Z,933.04
2023-10-08T05:27:56.831Z,933.04
2023-10-08T05:28:56.808Z,932.96
2023-10-08T05:29:56.897Z,932.90
2023-10-08T05:30:56.826Z,932.80
2023-10-08T05:31:56.794Z,932.76
2023-10-08T05:32:56.835Z,932.71
2023-10-08T05:33:56.775Z,932.63
2023-10-08T05:34:56.753Z,932.55
2023-10-08T05:35:56.888Z,932.49
2023-10-08T05:36:56.739Z,932.47
2023-10-08T05:37:56.738Z,932.40
2023-10-08T05:38:56.766Z,932.38
2023-10-08T05:39:56.729Z,932.28
2023-10-08T05:40:56.713Z,932.20
2023-10-08T05:41:56.741Z,932.17
2023-10-08T05:42:56.682Z,932.13
2023-10-08T05:43:56.701Z,932.09
2023-10-08T05:44:56.694Z,932.09
2023-10-08T05:45:56.669Z,932.07
2023-10-08T05:46:56.689Z,932.04
2023-10-08T05:47:56.752Z,932.07
2023-10-08T05:48:56.630Z,932.03
2023-10-08T05:49:56.632Z,931.99
2023-10-08T05:50:56.750Z,931.93
2023-10-08T05:51:56.709Z,931.90
2023-10-08T05:52:56.595Z,931.85
2023-10-08T05:53:56.637Z,931.84
2023-10-08T05:54:56.590Z,931.80
2023-10-08T05:55:56.579Z,931.75
2023-10-08T05:56:56.610Z,931.74
2023-10-08T05:57:56.562Z,931.72
2023-10-08T05:58:56.542Z,931.70
2023-10-08T05:59:56.823Z,931.69
2023-10-08T06:00:56.534Z,931.69
2023-10-08T06:01:56.521Z,931.72
2023-10-08T06:02:56.714Z,931.78
2023-10-08T06:03:56.586Z,931.86
2023-10-08T06:04:56.491Z,931.90
2023-10-08T06:05:56.517Z,931.99
2023-10-08T06:06:56.471Z,932.02
2023-10-08T06:07:57.122Z,932.07
2023-10-08T06:08:56.491Z,932.11
2023-10-08T06:09:56.455Z,932.14
2023-10-08T06:10:56.435Z,932.23
2023-10-08T06:11:57.416Z,932.26
2023-10-08T06:12:56.416Z,932.24
2023-10-08T06:13:56.442Z,932.27
2023-10-08T06:14:56.413Z,932.29
2023-10-08T06:15:56.422Z,932.27
2023-10-08T06:16:56.451Z,932.28
2023-10-08T06:17:58.189Z,932.30
2023-10-08T06:18:56.388Z,932.25
2023-10-08T06:19:56.366Z,932.29
2023-10-08T06:20:56.405Z,932.27
2023-10-08T06:21:56.345Z,932.28
2023-10-08T06:22:56.369Z,932.30
2023-10-08T06:23:56.422Z,932.34
2023-10-08T06:24:56.313Z,932.32
2023-10-08T06:25:56.306Z,932.34
2023-10-08T06:26:56.329Z,932.37
2023-10-08T06:27:56.454Z,932.35
2023-10-08T06:28:56.276Z,932.34
2023-10-08T06:29:56.358Z,932.32
2023-10-08T06:30:56.297Z,932.29
2023-10-08T06:31:56.264Z,932.24
2023-10-08T06:32:56.320Z,932.20
2023-10-08T06:33:56.242Z,932.21
2023-10-08T06:34:56.222Z,932.19
2023-10-08T06:35:56.275Z,932.22
2023-10-08T06:36:57.499Z,932.21
2023-10-08T06:37:56.237Z,932.24
2023-10-08T06:38:56.234Z,932.25
2023-10-08T06:39:56.191Z,932.29
2023-10-08T06:40:56.171Z,932.37
2023-10-08T06:41:56.210Z,932.39
2023-10-08T06:42:56.151Z,932.43
2023-10-08T06:43:56.155Z,932.41
2023-10-08T06:44:56.179Z,932.47
2023-10-08T06:45:56.139Z,932.47
2023-10-08T06:46:56.186Z,932.48
2023-10-08T06:47:56.142Z,932.52
2023-10-08T06:48:56.102Z,932.48
2023-10-08T06:49:56.118Z,932.46
2023-10-08T06:50:56.152Z,932.43
2023-10-08T06:51:56.084Z,932.38
2023-10-08T06:52:56.066Z,932.36
2023-10-08T06:53:56.121Z,932.32
2023-10-08T06:54:56.048Z,932.34
2023-10-08T06:55:56.061Z,932.32
2023-10-08T06:56:56.093Z,932.35
2023-10-08T06:57:56.136Z,932.37
2023-10-08T06:58:56.015Z,932.47
2023-10-08T06:59:56.063Z,932.47
2023-10-08T07:00:56.033Z,932.50
2023-10-08T07:01:55.997Z,932.54
2023-10-08T07:02:56.140Z,932.53
2023-10-08T07:03:56.148Z,932.48
2023-10-08T07:04:56.098Z,932.48
2023-10-08T07:05:56.092Z,932.50
2023-10-08T07:06:55.952Z,932.49
2023-10-08T07:07:55.954Z,932.52
2023-10-08T07:08:56.090Z,932.53
2023-10-08T07:09:55.938Z,932.56
2023-10-08T07:10:55.916Z,932.56
2023-10-08T07:11:56.285Z,932.59
2023-10-08T07:12:56.000Z,932.66
2023-10-08T07:13:55.898Z,932.68
2023-10-08T07:14:55.893Z,932.76
2023-10-08T07:15:55.884Z,932.77
2023-10-08T07:16:55.994Z,932.76
2023-10-08T07:17:55.957Z,932.76
2023-10-08T07:18:55.853Z,932.78
2023-10-08T07:19:55.850Z,932.77
2023-10-08T07:20:55.921Z,932.73
2023-10-08T07:21:55.836Z,932.67
2023-10-08T07:22:55.818Z,932.68
2023-10-08T07:23:55.856Z,932.64
2023-10-08T07:24:55.802Z,932.60
2023-10-08T07:25:55.805Z,932.58
2023-10-08T07:26:55.912Z,932.60
2023-10-08T07:27:55.886Z,932.61
2023-10-08T07:28:55.766Z,932.58
2023-10-08T07:29:55.799Z,932.58
2023-10-08T07:30:55.761Z,932.58
2023-10-08T07:31:55.763Z,932.60
2023-10-08T07:32:55.844Z,932.57
2023-10-08T07:33:55.735Z,932.59
2023-10-08T07:34:55.716Z,932.62
2023-10-08T07:35:55.749Z,932.64
2023-10-08T07:36:55.729Z,932.69
2023-10-08T07:37:55.708Z,932.71
2023-10-08T07:38:56.080Z,932.76
2023-10-08T07:39:55.695Z,932.77
2023-10-08T07:40:55.666Z,932.75
2023-10-08T07:41:55.763Z,932.75
2023-10-08T07:42:55.650Z,932.73
2023-10-08T07:43:55.651Z,932.71
2023-10-08T07:44:55.745Z,932.69
2023-10-08T07:45:55.680Z,932.68
2023-10-08T07:46:55.681Z,932.69
2023-10-08T07:47:55.687Z,932.64
2023-10-08T07:48:55.614Z,932.63
2023-10-08T07:49:55.614Z,932.61
2023-10-08T07:50:55.643Z,932.66
2023-10-08T07:51:55.583Z,932.60
2023-10-08T07:52:55.565Z,932.62
2023-10-08T07:53:55.735Z,932.66
2023-10-08T07:54:55.548Z,932.66
2023-10-08T07:55:55.551Z,932.68
2023-10-08T07:56:55.587Z,932.71
2023-10-08T07:57:55.555Z,932.69
2023-10-08T07:58:55.515Z,932.71
2023-10-08T07:59:56.019Z,932.68
2023-10-08T08:00:55.498Z,932.67
2023-10-08T08:01:55.536Z,932.63
2023-10-08T08:02:55.602Z,932.64
2023-10-08T08:03:55.672Z,932.68
2023-10-08T08:04:55.463Z,932.65
2023-10-08T08:05:55.506Z,932.64
2023-10-08T08:06:55.446Z,932.61
2023-10-08T08:07:55.451Z,932.57
2023-10-08T08:08:55.444Z,932.62
2023-10-08T08:09:55.438Z,932.56
2023-10-08T08:10:55.416Z,932.60
2023-10-08T08:11:55.480Z,932.63
2023-10-08T08:12:55.400Z,932.68
2023-10-08T08:13:55.462Z,932.69
2023-10-08T08:14:55.452Z,932.79
2023-10-08T08:15:55.388Z,932.83
2023-10-08T08:16:55.366Z,932.84
2023-10-08T08:17:55.436Z,932.88
2023-10-08T08:18:55.350Z,932.88
2023-10-08T08:19:55.475Z,932.94
2023-10-08T08:20:55.350Z,932.89
2023-10-08T08:21:55.336Z,932.94
2023-10-08T08:22:55.467Z,932.95
2023-10-08T08:23:55.360Z,932.94
2023-10-08T08:24:58.348Z,932.96
2023-10-08T08:25:55.310Z,932.98
2023-10-08T08:26:55.313Z,932.97
2023-10-08T08:27:55.288Z,932.97
2023-10-08T08:28:55.270Z,932.99
2023-10-08T08:29:55.427Z,933.01
2023-10-08T08:30:55.272Z,933.01
2023-10-08T08:31:55.255Z,933.02
2023-10-08T08:32:55.317Z,933.08
2023-10-08T08:33:55.327Z,933.07
2023-10-08T08:34:55.222Z,933.12
2023-10-08T08:35:55.265Z,933.17
2023-10-08T08:36:55.206Z,933.17
2023-10-08T08:37:55.201Z,933.22
2023-10-08T08:38:55.237Z,933.19
2023-10-08T08:39:56.112Z,933.17
2023-10-08T08:40:55.174Z,933.15
2023-10-08T08:41:55.206Z,933.16
2023-10-08T08:42:55.173Z,933.12
2023-10-08T08:43:55.163Z,933.12
2023-10-08T08:44:55.604Z,933.13
2023-10-08T08:45:55.221Z,933.13
2023-10-08T08:46:55.192Z,933.13
2023-10-08T08:47:55.450Z,933.12
2023-10-08T08:48:55.209Z,933.14
2023-10-08T08:49:55.099Z,933.25
2023-10-08T08:50:55.118Z,933.23
2023-10-08T08:51:55.108Z,933.28
2023-10-08T08:52:55.083Z,933.31
2023-10-08T08:53:55.091Z,933.30
2023-10-08T08:54:55.168Z,933.29
2023-10-08T08:55:55.053Z,933.29
2023-10-08T08:56:55.082Z,933.28
2023-10-08T08:57:55.041Z,933.25
2023-10-08T08:58:55.038Z,933.26
2023-10-08T08:59:55.053Z,933.27
2023-10-08T09:00:55.013Z,933.25
2023-10-08T09:01:55.022Z,933.22
2023-10-08T09:02:55.051Z,933.22
2023-10-08T09:03:55.146Z,933.24
2023-10-08T09:04:54.985Z,933.23
2023-10-08T09:05:55.001Z,933.24
2023-10-08T09:06:55.038Z,933.30
2023-10-08T09:07:54.953Z,933.27
2023-10-08T09:08:55.001Z,933.28
2023-10-08T09:09:55.039Z,933.28
2023-10-08T09:10:54.936Z,933.28
2023-10-08T09:11:54.974Z,933.28
2023-10-08T09:12:54.937Z,933.30
2023-10-08T09:13:54.904Z,933.29
2023-10-08T09:14:54.927Z,933.32
2023-10-08T09:15:56.888Z,933.27
2023-10-08T09:16:54.891Z,933.28
2023-10-08T09:17:54.918Z,933.27
2023-10-08T09:18:54.878Z,933.24
2023-10-08T09:19:54.859Z,933.24
2023-10-08T09:20:54.924Z,933.26
2023-10-08T09:21:54.859Z,933.20
2023-10-08T09:22:54.845Z,933.21
2023-10-08T09:23:54.856Z,933.18
2023-10-08T09:24:54.821Z,933.18
2023-10-08T09:25:54.809Z,933.18
2023-10-08T09:26:54.881Z,933.19
2023-10-08T09:27:54.794Z,933.20
2023-10-08T09:28:54.803Z,933.21
2023-10-08T09:29:54.843Z,933.21
2023-10-08T09:30:54.784Z,933.30
2023-10-08T09:31:54.822Z,933.27
2023-10-08T09:32:56.355Z,933.30
2023-10-08T09:33:54.810Z,933.33
2023-10-08T09:34:54.743Z,933.36
2023-10-08T09:35:54.777Z,933.40
2023-10-08T09:36:54.729Z,933.47
2023-10-08T09:37:54.710Z,933.53
2023-10-08T09:38:54.714Z,933.57
2023-10-08T09:39:54.695Z,933.64
2023-10-08T09:40:54.761Z,933.67
2023-10-08T09:41:54.746Z,933.70
2023-10-08T09:42:54.689Z,933.83
2023-10-08T09:43:54.667Z,933.84
2023-10-08T09:44:54.725Z,933.86
2023-10-08T09:45:54.730Z,933.96
2023-10-08T09:46:54.652Z,933.98
2023-10-08T09:47:54.810Z,933.96
2023-10-08T09:48:54.720Z,933.99
2023-10-08T09:49:54.617Z,934.04
2023-10-08T09:50:54.669Z,934.04
2023-10-08T09:51:54.596Z,934.01
2023-10-08T09:52:54.599Z,933.98
2023-10-08T09:53:54.633Z,933.98
2023-10-08T09:54:54.588Z,933.93
2023-10-08T09:55:54.565Z,933.91
2023-10-08T09:56:54.609Z,933.88
2023-10-08T09:57:54.548Z,933.91
2023-10-08T09:58:54.546Z,933.92
2023-10-08T09:59:54.574Z,933.91
2023-10-08T10:00:57.705Z,933.91
2023-10-08T10:01:54.517Z,933.86
2023-10-08T10:02:54.697Z,933.89
2023-10-08T10:03:54.736Z,933.92
2023-10-08T10:04:54.507Z,933.97
2023-10-08T10:05:54.523Z,934.00
2023-10-08T10:06:54.483Z,933.96
2023-10-08T10:07:54.465Z,933.96
2023-10-08T10:08:54.578Z,933.92
2023-10-08T10:09:54.455Z,933.93
2023-10-08T10:10:54.464Z,933.87
2023-10-08T10:11:54.743Z,933.92
2023-10-08T10:12:54.437Z,933.92
2023-10-08T10:13:54.415Z,933.88
2023-10-08T10:14:54.441Z,933.92
2023-10-08T10:15:54.427Z,933.92
2023-10-08T10:16:54.402Z,933.90
2023-10-08T10:17:54.431Z,933.94
2023-10-08T10:18:54.574Z,933.94
2023-10-08T10:19:54.368Z,933.96
2023-10-08T10:20:54.460Z,934.00
2023-10-08T10:21:54.351Z,933.95
2023-10-08T10:22:54.344Z,933.97
2023-10-08T10:23:54.365Z,934.01
2023-10-08T10:24:54.336Z,934.01
2023-10-08T10:25:54.314Z,934.05
2023-10-08T10:26:54.369Z,934.09
2023-10-08T10:27:54.302Z,934.09
2023-10-08T10:28:54.303Z,934.12
2023-10-08T10:29:54.329Z,934.14
2023-10-08T10:30:54.376Z,934.15
2023-10-08T10:31:54.520Z,934.23
2023-10-08T10:32:54.364Z,934.22
2023-10-08T10:33:54.250Z,934.25
2023-10-08T10:34:54.263Z,934.33
2023-10-08T10:35:54.326Z,934.36
2023-10-08T10:36:54.229Z,934.38
2023-10-08T10:37:54.230Z,934.41
2023-10-08T10:38:54.302Z,934.43
2023-10-08T10:39:54.201Z,934.46
2023-10-08T10:40:54.206Z,934.45
2023-10-08T10:41:54.291Z,934.43
2023-10-08T10:42:54.191Z,934.37
2023-10-08T10:43:54.345Z,934.38
2023-10-08T10:44:54.203Z,934.40
2023-10-08T10:45:54.156Z,934.37
2023-10-08T10:46:54.155Z,934.38
2023-10-08T10:47:54.185Z,934.39
2023-10-08T10:48:54.273Z,934.34
2023-10-08T10:49:54.369Z,934.31
2023-10-08T10:50:54.176Z,934.27
2023-10-08T10:51:54.105Z,934.27
2023-10-08T10:52:54.136Z,934.25
2023-10-08T10:53:54.119Z,934.26
2023-10-08T10:54:54.090Z,934.27
2023-10-08T10:55:54.069Z,934.24
2023-10-08T10:56:54.165Z,934.24
2023-10-08T10:57:54.084Z,934.19
2023-10-08T10:58:54.071Z,934.23
2023-10-08T10:59:54.072Z,934.24
2023-10-08T11:00:54.080Z,934.22
2023-10-08T11:01:54.168Z,934.17
2023-10-08T11:02:54.129Z,934.20
2023-10-08T11:03:54.126Z,934.20
2023-10-08T11:04:54.009Z,934.24
2023-10-08T11:05:54.078Z,934.25
2023-10-08T11:06:53.984Z,934.27
2023-10-08T11:07:53.974Z,934.26
2023-10-08T11:08:54.183Z,934.27
2023-10-08T11:09:53.956Z,934.27
2023-10-08T11:10:54.042Z,934.25
2023-10-08T11:11:53.968Z,934.25
2023-10-08T11:12:53.944Z,934.30
2023-10-08T11:13:53.924Z,934.28
2023-10-08T11:14:53.975Z,934.28
2023-10-08T11:15:53.931Z,934.25
2023-10-08T11:16:53.915Z,934.26
2023-10-08T11:17:53.969Z,934.23
2023-10-08T11:18:53.945Z,934.23
2023-10-08T11:19:53.882Z,934.16
2023-10-08T11:20:53.983Z,934.20
2023-10-08T11:21:53.860Z,934.17
2023-10-08T11:22:53.902Z,934.15
2023-10-08T11:23:54.163Z,934.12
2023-10-08T11:24:53.848Z,934.11
2023-10-08T11:25:53.846Z,934.13
2023-10-08T11:26:53.848Z,934.10
2023-10-08T11:27:53.818Z,934.06
2023-10-08T11:28:53.815Z,934.11
2023-10-08T11:29:53.828Z,934.09
2023-10-08T11:30:53.885Z,934.08
2023-10-08T11:31:53.785Z,934.09
2023-10-08T11:32:53.830Z,934.10
2023-10-08T11:33:53.767Z,934.09
2023-10-08T11:34:53.770Z,934.06
2023-10-08T11:35:53.862Z,934.05
2023-10-08T11:36:53.751Z,934.08
2023-10-08T11:37:53.734Z,934.09
2023-10-08T11:38:53.793Z,934.06
2023-10-08T11:39:53.717Z,934.05
2023-10-08T11:40:53.715Z,934.11
2023-10-08T11:41:53.739Z,934.05
2023-10-08T11:42:53.710Z,934.08
2023-10-08T11:43:53.687Z,934.12
2023-10-08T11:44:53.811Z,934.14
2023-10-08T11:45:53.733Z,934.12
2023-10-08T11:46:53.693Z,934.13
2023-10-08T11:47:53.904Z,934.12
2023-10-08T11:48:53.661Z,934.17
2023-10-08T11:49:53.639Z,934.19
2023-10-08T11:50:53.675Z,934.19
2023-10-08T11:51:53.623Z,934.23
2023-10-08T11:52:53.621Z,934.22
2023-10-08T11:53:53.694Z,934.26
2023-10-08T11:54:53.613Z,934.28
2023-10-08T11:55:53.594Z,934.27
2023-10-08T11:56:53.624Z,934.33
2023-10-08T11:57:53.579Z,934.34
2023-10-08T11:58:53.581Z,934.34
2023-10-08T11:59:53.602Z,934.37
2023-10-08T12:00:53.859Z,934.40
2023-10-08T12:01:53.549Z,934.40
2023-10-08T12:02:53.716Z,934.46
2023-10-08T12:03:53.648Z,934.44
2023-10-08T12:04:53.768Z,934.44
2023-10-08T12:05:53.614Z,934.42
2023-10-08T12:06:53.512Z,934.43
2023-10-08T12:07:53.500Z,934.38
2023-10-08T12:08:53.550Z,934.34
2023-10-08T12:09:53.488Z,934.38
2023-10-08T12:10:53.489Z,934.37
2023-10-08T12:11:53.510Z,934.37
2023-10-08T12:12:53.517Z,934.35
2023-10-08T12:13:53.457Z,934.31
2023-10-08T12:14:53.572Z,934.28
2023-10-08T12:15:53.466Z,934.26
2023-10-08T12:16:53.504Z,934.26
2023-10-08T12:17:53.490Z,934.21
2023-10-08T12:18:53.529Z,934.17
2023-10-08T12:19:53.413Z,934.15
2023-10-08T12:20:53.491Z,934.14
2023-10-08T12:21:53.397Z,934.15
2023-10-08T12:22:53.403Z,934.16
2023-10-08T12:23:53.492Z,934.10
2023-10-08T12:24:53.385Z,934.10
2023-10-08T12:25:53.780Z,934.06
2023-10-08T12:26:53.414Z,934.03
2023-10-08T12:27:53.352Z,934.10
2023-10-08T12:28:53.359Z,934.10